Latest Weather Observations for Mangalore

IDV60801

Issued at 11:31 pm EST Tuesday 4 August 2015 (issued every 30 minutes, with the page automatically refreshed every 10 minutes)

About weather observations | Map of weather stations | Latest weather observations for VIC | Other Formats
Station Details ID: 088109 Name: MANGALORE AIRPORT Lat: -36.89 Lon: 145.19 Height: 140.8 m
Data from the previous 72 hours. | See also: Recent months at Mangalore
Date/Time
EST
Temp
°C
App
Temp
°C
Dew
Point
Rel
Hum
%
Delta-T
°C
Wind Press
QNH
hPa
Press
MSL
hPa
Rain
since 9 am
mm
Dir
 
Spd
km/h
Gust
km/h
Spd
kts
Gust
kts
04/11:30pm 6.7 3.3 6.0 95 0.3 N 13 17 7 9 1017.3 1017.6 0.0
04/11:03pm 6.6 3.1 5.6 93 0.4 N 13 19 7 10 1017.7 1018.0 0.0
04/11:00pm 6.7 3.2 5.5 92 0.5 N 13 19 7 10 1017.7 1018.0 0.0
04/10:53pm 6.6 2.7 5.2 91 0.6 N 15 17 8 9 1017.7 1018.0 0.0
04/10:30pm 6.9 2.5 4.7 86 1.0 NNW 17 22 9 12 1018.1 1018.4 0.0
04/10:14pm 6.9 2.1 4.4 84 1.1 N 19 24 10 13 1018.2 1018.5 0.0
04/10:00pm 6.7 1.8 3.9 82 1.2 N 19 24 10 13 1018.3 1018.6 0.0
04/09:30pm 6.7 2.1 3.7 81 1.3 N 17 20 9 11 1018.8 1019.0 0.0
04/09:00pm 6.4 2.6 3.9 84 1.1 N 13 17 7 9 1019.1 1019.3 0.0
04/08:30pm 6.6 2.4 3.6 81 1.3 N 15 22 8 12 1019.4 1019.6 0.0
04/08:00pm 6.5 2.6 3.5 81 1.3 N 13 15 7 8 1019.7 1019.9 0.0
04/07:30pm 6.5 2.9 3.1 79 1.4 N 11 15 6 8 1019.8 1020.0 0.0
04/07:00pm 7.0 3.0 2.9 75 1.7 NNW 13 17 7 9 1020.0 1020.2 0.0
04/06:30pm 7.1 3.4 2.4 72 2.0 NNW 11 15 6 8 1019.9 1020.1 0.0
04/06:00pm 7.4 3.7 2.3 70 2.1 N 11 15 6 8 1020.2 1020.4 0.0
04/05:30pm 7.5 3.8 2.2 69 2.2 NNW 11 13 6 7 1020.1 1020.3 0.0
04/05:00pm 7.7 4.3 2.0 67 2.4 NNW 9 11 5 6 1020.1 1020.3 0.0
04/04:30pm 8.0 3.8 1.4 63 2.7 NNW 13 19 7 10 1020.2 1020.4 0.0
04/04:00pm 8.2 3.9 0.9 60 3.0 NW 13 19 7 10 1020.7 1020.9 0.0
04/03:30pm 8.4 3.6 0.4 57 3.2 WNW 15 19 8 10 1021.0 1021.2 0.0
04/03:00pm 8.6 3.8 0.3 56 3.3 WNW 15 22 8 12 1021.1 1021.3 0.0
04/02:30pm 8.6 3.5 0.6 57 3.2 WNW 17 24 9 13 1021.0 1021.2 0.0
04/02:00pm 9.0 3.9 0.5 55 3.4 WNW 17 22 9 12 1021.3 1021.5 0.0
04/01:30pm 8.8 3.6 0.3 55 3.4 WNW 17 24 9 13 1021.6 1021.8 0.0
04/01:00pm 8.4 4.0 0.4 57 3.2 NW 13 17 7 9 1022.1 1022.4 0.0
04/12:30pm 7.4 4.0 2.1 69 2.2 NNE 9 13 5 7 1022.7 1023.0 0.0
04/12:00pm 7.5 4.6 2.8 72 2.0 NNE 7 11 4 6 1023.6 1023.9 0.0
04/11:30am 6.0 3.3 2.5 78 1.4 SSW 6 9 3 5 1023.9 1024.2 0.0
04/11:00am 5.0 2.3 2.9 86 0.9 SSW 6 9 3 5 1024.3 1024.6 0.0
04/10:30am 3.6 1.0 3.3 98 0.1 SSW 6 9 3 5 1024.6 1024.9 0.0
04/10:00am 2.4 -0.6 2.3 99 0.0 SSW 7 9 4 5 1024.6 1024.9 0.0
04/09:30am 1.1 -1.9 1.0 99 0.0 SSW 6 9 3 5 1024.5 1024.8 0.0
04/09:00am 0.1 -1.9 0.0 99 0.0 CALM 0 6 0 3 1024.6 1024.9 0.4
04/08:30am -0.4 -3.2 -0.5 99 0.0 SSW 4 11 2 6 1024.8 1025.1 0.4
04/08:00am -1.7 -5.1 -1.8 99 0.0 SSW 6 7 3 4 1024.6 1024.9 0.4
04/07:30am -2.1 -4.4 -2.2 99 -0.1 CALM 0 0 0 0 1024.5 1024.8 0.4
04/07:00am -1.9 -4.2 -2.0 99 -0.1 CALM 0 0 0 0 1024.3 1024.6 0.4
04/06:30am -1.6 -3.8 -1.7 99 0.0 CALM 0 0 0 0 1024.3 1024.6 0.4
04/06:00am -1.6 -4.6 -1.7 99 0.0 SSW 4 6 2 3 1024.1 1024.4 0.4
04/05:30am -1.7 -3.9 -1.8 99 0.0 CALM 0 7 0 4 1023.9 1024.2 0.4
04/05:00am -2.2 -4.5 -2.3 99 -0.1 CALM 0 0 0 0 1023.8 1024.1 0.4
04/04:30am -3.0 -5.4 -3.1 99 -0.1 CALM 0 4 0 2 1023.8 1024.1 0.4
04/04:04am -2.3 -4.6 -2.4 99 -0.1 CALM 0 7 0 4 1023.7 1024.0 0.4
04/04:00am -2.2 -4.5 -2.3 99 -0.1 CALM 0 0 0 0 1023.7 1024.0 0.4
04/03:44am -2.6 -4.9 -2.7 99 -0.1 CALM 0 0 0 0 1023.7 1024.0 0.4
04/03:30am -2.9 -5.7 -3.0 99 -0.1 SSW 2 6 1 3 1023.8 1024.1 0.4
04/03:00am -1.9 -4.5 -2.0 99 -0.1 SSW 2 7 1 4 1023.9 1024.2 0.4
04/02:30am -1.7 -4.7 -1.8 99 0.0 SSW 4 7 2 4 1024.0 1024.3 0.4
04/02:00am -2.0 -4.3 -2.1 99 -0.1 CALM 0 0 0 0 1024.1 1024.4 0.4
04/01:30am -1.7 -4.7 -2.0 98 0.0 SSW 4 6 2 3 1024.0 1024.3 0.4
04/01:00am -1.2 -4.5 -1.5 98 0.0 SSW 6 9 3 5 1024.1 1024.4 0.4
04/12:30am -0.5 -3.7 -0.8 98 0.1 SSW 6 7 3 4 1024.1 1024.4 0.4
04/12:00am -0.7 -2.8 -1.1 97 0.1 CALM 0 0 0 0 1024.1 1024.4 0.4
 
Date/Time
EST
Temp
°C
App
Temp
°C
Dew
Point
Rel
Hum
%
Delta-T
°C
Wind Press
QNH
hPa
Press
MSL
hPa
Rain
since 9 am
mm
Dir
 
Spd
km/h
Gust
km/h
Spd
kts
Gust
kts
03/11:30pm -0.6 -2.8 -1.3 95 0.2 CALM 0 0 0 0 1024.0 1024.3 0.4
03/11:00pm -0.3 -2.8 -1.1 94 0.3 SSW 2 6 1 3 1024.0 1024.3 0.4
03/10:30pm 1.1 -1.6 0.2 94 0.3 SSW 4 9 2 5 1024.2 1024.5 0.4
03/10:00pm 1.0 -1.0 -0.3 91 0.5 CALM 0 0 0 0 1024.4 1024.7 0.4
03/09:30pm 2.0 -1.3 0.2 88 0.7 SSW 7 9 4 5 1024.2 1024.5 0.4
03/09:00pm 2.2 0.2 -0.4 83 0.9 CALM 0 6 0 3 1024.1 1024.4 0.4
03/08:30pm 3.3 0.2 0.4 81 1.1 SSW 6 6 3 3 1023.9 1024.2 0.4
03/08:00pm 4.4 1.4 0.7 77 1.4 SSW 6 7 3 4 1023.7 1024.0 0.4
03/07:30pm 5.5 2.2 0.3 69 2.0 SSW 7 9 4 5 1023.3 1023.6 0.4
03/07:00pm 6.2 2.2 0.3 66 2.3 SSW 11 17 6 9 1023.0 1023.3 0.4
03/06:30pm 6.8 2.3 0.0 62 2.7 SSW 13 22 7 12 1022.4 1022.7 0.4
03/06:00pm 7.1 2.9 -0.8 57 3.0 SSW 11 15 6 8 1022.1 1022.4 0.4
03/05:30pm 7.7 2.6 -1.8 51 3.6 SW 15 20 8 11 1021.6 1021.8 0.4
03/05:00pm 8.5 3.0 -2.1 47 4.0 SSW 17 24 9 13 1021.2 1021.4 0.4
03/04:30pm 9.1 2.9 -3.1 42 4.5 SW 20 30 11 16 1020.7 1020.9 0.4
03/04:00pm 9.5 3.1 -1.5 46 4.3 SW 22 32 12 17 1020.5 1020.7 0.4
03/03:30pm 9.3 2.9 -1.7 46 4.2 SSW 22 33 12 18 1020.4 1020.6 0.4
03/03:00pm 9.8 3.4 -1.9 44 4.5 SW 22 35 12 19 1020.0 1020.2 0.4
03/02:30pm 9.0 2.3 -0.9 50 3.9 SSW 24 41 13 22 1019.9 1020.1 0.4
03/02:00pm 10.4 4.3 0.4 50 4.1 SW 22 35 12 19 1019.6 1019.8 0.4
03/01:30pm 9.0 2.8 -0.1 53 3.6 SW 22 33 12 18 1019.8 1020.0 0.4
03/01:00pm 8.7 2.2 0.4 56 3.3 SSW 24 33 13 18 1019.7 1019.9 0.4
03/12:30pm 9.0 2.8 -0.1 53 3.6 SW 22 35 12 19 1019.6 1019.8 0.4
03/12:00pm 9.2 2.8 1.1 57 3.3 SW 24 39 13 21 1019.7 1019.9 0.4
03/11:30am 9.0 4.3 3.4 68 2.4 WSW 17 26 9 14 1019.7 1019.9 0.4
03/11:00am 7.2 1.5 2.7 73 1.9 WSW 22 28 12 15 1019.6 1019.8 0.4
03/10:30am 6.5 1.9 3.8 83 1.2 SW 17 26 9 14 1019.6 1019.8 0.4
03/10:14am 6.6 1.0 3.4 80 1.4 SW 22 33 12 18 1019.5 1019.7 0.2
03/10:00am 8.7 3.7 3.5 70 2.3 WSW 19 26 10 14 1018.5 1018.8 0.0
03/09:30am 8.1 2.0 3.0 70 2.2 WSW 24 37 13 20 1018.1 1018.4 0.0
03/09:00am 7.8 3.6 3.8 76 1.7 WSW 15 24 8 13 1017.9 1018.2 3.6
03/08:31am 6.7 1.1 3.7 81 1.3 WSW 22 32 12 17 1017.5 1017.8 3.6
03/08:30am 6.7 0.8 3.7 81 1.3 WSW 24 32 13 17 1017.5 1017.8 3.6
03/08:17am 6.7 1.6 5.8 94 0.4 WSW 22 48 12 26 1017.5 1017.8 3.2
03/08:15am 6.9 2.9 6.5 97 0.2 WSW 17 39 9 21 1017.5 1017.8 3.2
03/08:00am 7.3 4.2 7.2 99 0.0 WNW 13 17 7 9 1016.8 1017.1 2.8
03/07:30am 7.0 2.5 6.9 99 0.0 WNW 20 26 11 14 1016.2 1016.5 2.8
03/07:13am 7.0 3.1 6.9 99 0.0 WNW 17 22 9 12 1015.9 1016.1 2.4
03/07:00am 7.0 3.1 6.9 99 0.0 NW 17 26 9 14 1015.7 1015.9 2.4
03/06:57am 7.0 3.1 6.9 99 0.0 NW 17 24 9 13 1015.7 1015.9 2.4
03/06:30am 7.0 3.4 6.9 99 0.0 NW 15 22 8 12 1015.2 1015.4 2.4
03/06:06am 7.0 3.4 6.9 99 0.0 NNW 15 19 8 10 1015.2 1015.4 2.2
03/06:00am 7.1 3.2 7.0 99 0.0 NNW 17 20 9 11 1015.1 1015.3 2.2
03/05:30am 7.3 2.9 6.7 96 0.3 NW 19 26 10 14 1015.1 1015.3 1.6
03/05:28am 7.3 2.9 6.7 96 0.3 NW 19 26 10 14 1015.1 1015.3 1.6
03/05:00am 7.4 3.8 6.8 96 0.3 NW 15 20 8 11 1014.8 1015.0 1.2
03/04:30am 7.3 3.6 6.4 94 0.4 NNW 15 20 8 11 1014.8 1015.0 1.2
03/04:00am 7.6 3.5 6.2 91 0.6 NNW 17 24 9 13 1014.5 1014.7 0.8
03/03:30am 7.6 3.5 6.1 90 0.7 NNW 17 22 9 12 1014.7 1014.9 0.6
03/03:00am 7.6 3.4 5.7 88 0.9 NNW 17 22 9 12 1014.7 1014.9 0.6
03/02:30am 7.8 3.5 5.4 85 1.1 NNW 17 22 9 12 1015.0 1015.2 0.6
03/02:00am 8.1 4.0 6.1 87 0.9 NNW 17 22 9 12 1015.1 1015.3 0.6
03/01:30am 8.2 3.7 6.0 86 1.0 NNW 19 24 10 13 1015.2 1015.4 0.6
03/01:00am 7.7 3.9 5.7 87 0.9 NNW 15 19 8 10 1015.0 1015.2 0.6
03/12:30am 8.3 4.1 5.8 84 1.1 NW 17 24 9 13 1015.2 1015.4 0.6
03/12:00am 8.3 4.2 6.1 86 1.0 NW 17 22 9 12 1015.3 1015.5 0.6
 
Date/Time
EST
Temp
°C
App
Temp
°C
Dew
Point
Rel
Hum
%
Delta-T
°C
Wind Press
QNH
hPa
Press
MSL
hPa
Rain
since 9 am
mm
Dir
 
Spd
km/h
Gust
km/h
Spd
kts
Gust
kts
02/11:30pm 8.3 3.8 6.3 87 0.9 NW 19 24 10 13 1015.3 1015.5 0.6
02/11:00pm 8.1 4.2 6.9 92 0.6 NW 17 20 9 11 1015.0 1015.2 0.6
02/10:30pm 8.2 3.7 6.8 91 0.7 NW 20 28 11 15 1015.0 1015.2 0.6
02/10:00pm 9.4 4.5 7.0 85 1.1 NW 22 30 12 16 1015.1 1015.3 0.4
02/09:30pm 9.1 4.2 7.1 87 0.9 NNW 22 30 12 16 1014.8 1015.0 0.4
02/09:00pm 9.2 4.4 7.2 87 0.9 NNW 22 28 12 15 1014.7 1014.9 0.4
02/08:30pm 9.5 4.2 6.9 84 1.2 NNW 24 37 13 20 1014.4 1014.6 0.4
02/08:00pm 9.8 5.2 6.7 81 1.5 NNW 20 28 11 15 1014.4 1014.6 0.0
02/07:30pm 9.9 5.8 6.4 79 1.6 NNW 17 28 9 15 1014.3 1014.5 0.0
02/07:00pm 10.0 5.4 5.4 73 2.1 N 19 28 10 15 1013.9 1014.1 0.0
02/06:30pm 10.1 5.8 5.3 72 2.2 N 17 20 9 11 1013.8 1014.0 0.0
02/06:00pm 9.8 5.8 4.8 71 2.3 N 15 24 8 13 1013.5 1013.7 0.0
02/05:30pm 10.8 6.8 4.7 66 2.8 NNW 15 19 8 10 1013.6 1013.8 0.0
02/05:00pm 11.1 6.3 4.6 64 3.0 NNW 19 26 10 14 1013.4 1013.6 0.0
02/04:30pm 11.6 6.6 3.6 58 3.6 WNW 19 28 10 15 1013.1 1013.3 0.0
02/04:00pm 11.5 6.9 3.8 59 3.5 WNW 17 28 9 15 1012.9 1013.1 0.0
02/03:30pm 11.4 5.8 3.7 59 3.4 NW 22 33 12 18 1013.1 1013.3 0.0
02/03:00pm 11.4 6.3 3.2 57 3.6 WNW 19 28 10 15 1012.9 1013.1 0.0
02/02:30pm 11.1 6.4 2.9 57 3.6 WNW 17 24 9 13 1012.9 1013.1 0.0
02/02:00pm 10.8 6.4 4.5 65 2.9 W 17 24 9 13 1013.1 1013.3 0.0
02/01:30pm 11.2 6.3 4.0 61 3.2 WNW 19 24 10 13 1013.3 1013.5 0.0
02/01:00pm 10.2 4.1 3.0 61 3.1 W 24 33 13 18 1013.4 1013.6 0.0
02/12:30pm 10.6 5.2 4.3 65 2.8 W 22 30 12 16 1014.0 1014.2 0.0
02/12:00pm 9.8 4.7 4.2 68 2.5 W 20 30 11 16 1014.5 1014.7 0.0
02/11:30am 9.4 4.6 4.4 71 2.2 W 19 24 10 13 1014.8 1015.0 0.0
02/11:00am 8.7 5.2 5.3 79 1.5 WNW 13 20 7 11 1014.9 1015.1 0.0
02/10:30am 8.1 5.7 5.2 82 1.3 NW 7 13 4 7 1014.8 1015.0 0.0
02/10:00am 6.6 3.9 5.6 93 0.4 NW 9 11 5 6 1014.7 1014.9 0.0
02/09:30am 6.3 4.3 6.2 99 0.0 NW 6 7 3 4 1014.9 1015.1 0.0
02/09:00am 6.1 4.0 6.0 99 0.0 W 6 7 3 4 1014.8 1015.0 5.6
02/08:30am 5.7 4.3 5.6 99 0.0 W 2 6 1 3 1014.9 1015.1 5.6
02/08:00am 5.4 3.0 5.3 99 0.0 W 7 9 4 5 1015.0 1015.2 5.4
02/07:30am 5.6 4.6 5.5 99 0.0 CALM 0 0 0 0 1015.1 1015.3 5.4
02/07:00am 5.7 3.4 5.6 99 0.0 W 7 9 4 5 1015.2 1015.4 5.4
02/06:30am 5.8 2.7 5.7 99 0.0 W 11 15 6 8 1015.1 1015.3 5.2
02/06:00am 6.1 3.5 6.0 99 0.0 SW 9 11 5 6 1014.7 1014.9 4.6
02/05:30am 6.1 4.0 6.0 99 0.0 SSW 6 7 3 4 1014.4 1014.6 4.4
02/05:00am 6.2 4.1 5.9 98 0.1 SSW 6 7 3 4 1014.3 1014.5 4.0
02/04:30am 6.3 3.3 6.0 98 0.1 SSW 11 17 6 9 1014.1 1014.3 3.6
02/04:00am 6.5 3.2 6.4 99 0.0 SSW 13 17 7 9 1014.0 1014.2 3.6
02/03:30am 6.6 3.7 6.5 99 0.0 SSW 11 13 6 7 1014.4 1014.6 3.6
02/03:00am 6.6 4.1 6.5 99 0.0 S 9 13 5 7 1014.8 1015.0 3.6
02/02:30am 6.6 4.5 6.5 99 0.0 S 7 9 4 5 1015.0 1015.2 3.6
02/02:00am 6.6 4.7 6.5 99 0.0 S 6 6 3 3 1014.9 1015.1 3.6
02/01:30am 6.4 4.4 6.3 99 0.0 S 6 7 3 4 1015.2 1015.4 3.6
02/01:00am 6.9 6.2 6.8 99 0.0 CALM 0 0 0 0 1016.0 1016.2 3.6
02/12:30am 6.7 4.6 6.6 99 0.0 S 7 9 4 5 1015.9 1016.1 3.6
02/12:00am 6.9 6.2 6.8 99 0.0 CALM 0 0 0 0 1016.3 1016.6 3.6

Other Formats:

Comma delimited format used in spreadsheet applications
http://www.bom.gov.au/fwo/IDV60801/IDV60801.94874.axf

JavaScript Object Notation format (JSON) in row-major order
http://www.bom.gov.au/fwo/IDV60801/IDV60801.94874.json